createdAt,value
2019-02-28T00:01:05.782Z,48.17
2019-02-28T00:02:14.215Z,50.12
2019-02-28T00:03:32.826Z,50.20
2019-02-28T00:04:38.817Z,48.17
2019-02-28T00:06:04.080Z,49.38
2019-02-28T00:07:15.342Z,48.70
2019-02-28T00:08:15.557Z,47.85
2019-02-28T00:09:25.702Z,50.20
2019-02-28T00:10:34.316Z,48.25
2019-02-28T00:11:44.459Z,48.87
2019-02-28T00:12:55.061Z,49.33
2019-02-28T00:15:29.630Z,46.88
2019-02-28T00:20:50.040Z,47.27
2019-02-28T00:23:32.073Z,50.33
2019-02-28T00:24:38.729Z,48.63
2019-02-28T00:25:48.854Z,48.25
2019-02-28T00:27:04.476Z,50.48
2019-02-28T00:28:14.726Z,50.55
2019-02-28T00:29:24.103Z,49.08
2019-02-28T00:30:37.374Z,50.17
2019-02-28T00:31:54.117Z,49.05
2019-02-28T00:33:17.556Z,50.00
2019-02-28T00:34:57.344Z,49.75
2019-02-28T00:36:04.131Z,49.60
2019-02-28T00:38:52.811Z,50.65
2019-02-28T00:40:38.537Z,50.08
2019-02-28T00:44:47.731Z,47.93
2019-02-28T00:47:38.495Z,47.75
2019-02-28T00:49:03.471Z,49.23
2019-02-28T00:50:06.813Z,48.20
2019-02-28T00:51:17.159Z,49.93
2019-02-28T00:53:38.228Z,47.78
2019-02-28T00:54:47.797Z,49.58
2019-02-28T00:56:00.988Z,47.73
2019-02-28T00:57:23.698Z,49.88
2019-02-28T00:58:22.945Z,49.08
2019-02-28T00:59:41.961Z,48.52
2019-02-28T01:00:53.635Z,48.33
2019-02-28T01:02:02.662Z,49.48
2019-02-28T01:03:08.631Z,45.43
2019-02-28T01:04:14.085Z,49.10
2019-02-28T01:05:20.249Z,48.23
2019-02-28T01:06:30.935Z,48.83
2019-02-28T01:07:41.496Z,48.23
2019-02-28T01:08:49.132Z,47.43
2019-02-28T01:10:05.987Z,48.45
2019-02-28T01:11:20.023Z,45.50
2019-02-28T01:12:44.606Z,43.98
2019-02-28T01:13:52.813Z,43.92
2019-02-28T01:14:57.694Z,45.58
2019-02-28T01:16:04.590Z,47.10
2019-02-28T01:17:12.369Z,47.27
2019-02-28T01:18:24.731Z,47.23
2019-02-28T01:19:41.318Z,47.15
2019-02-28T01:20:51.524Z,45.52
2019-02-28T01:21:58.009Z,45.10
2019-02-28T01:23:04.736Z,45.03
2019-02-28T01:24:12.487Z,45.20
2019-02-28T01:25:21.228Z,45.17
2019-02-28T01:26:27.580Z,43.73
2019-02-28T01:27:33.912Z,44.60
2019-02-28T01:29:02.843Z,43.20
2019-02-28T01:30:06.565Z,44.48
2019-02-28T01:31:15.140Z,46.85
2019-02-28T01:32:25.340Z,44.00
2019-02-28T01:33:36.153Z,44.75
2019-02-28T01:35:09.753Z,44.33
2019-02-28T01:36:06.403Z,42.58
2019-02-28T01:37:20.889Z,42.93
2019-02-28T01:38:32.838Z,45.38
2019-02-28T01:40:56.460Z,42.20
2019-02-28T01:42:11.076Z,44.88
2019-02-28T01:43:33.200Z,44.25
2019-02-28T01:44:36.525Z,43.42
2019-02-28T01:45:51.400Z,42.98
2019-02-28T01:46:53.885Z,41.23
2019-02-28T01:48:22.856Z,44.00
2019-02-28T01:57:50.667Z,41.70
2019-02-28T01:58:16.773Z,42.15
2019-02-28T01:58:56.498Z,40.67
2019-02-28T02:00:09.823Z,40.92
2019-02-28T02:01:15.475Z,41.68
2019-02-28T02:02:24.784Z,40.80
2019-02-28T02:03:32.676Z,42.08
2019-02-28T02:04:43.170Z,42.67
2019-02-28T02:05:51.666Z,43.65
2019-02-28T02:07:01.996Z,42.50
2019-02-28T02:08:10.082Z,42.53
2019-02-28T02:09:19.310Z,43.20
2019-02-28T02:10:42.135Z,43.00
2019-02-28T02:11:53.808Z,42.62
2019-02-28T02:14:13.469Z,36.85
2019-02-28T02:16:23.650Z,40.88
2019-02-28T02:16:27.836Z,41.80
2019-02-28T02:17:35.464Z,40.00
2019-02-28T02:18:47.328Z,40.88
2019-02-28T02:20:10.586Z,39.65
2019-02-28T02:23:54.837Z,39.15
2019-02-28T02:25:03.152Z,40.90
2019-02-28T02:26:16.458Z,40.55
2019-02-28T02:28:45.522Z,40.20
2019-02-28T02:29:49.420Z,39.15
2019-02-28T02:30:59.157Z,40.05
2019-02-28T02:32:04.147Z,38.80
2019-02-28T02:33:14.443Z,39.85
2019-02-28T02:34:28.246Z,39.75
2019-02-28T02:35:42.214Z,40.98
2019-02-28T02:38:30.337Z,39.13
2019-02-28T02:38:43.131Z,38.88
2019-02-28T02:39:41.911Z,38.58
2019-02-28T02:48:31.809Z,35.80
2019-02-28T02:52:13.947Z,36.42
2019-02-28T02:52:37.205Z,37.13
2019-02-28T02:54:06.085Z,37.60
2019-02-28T02:59:23.920Z,37.80
2019-02-28T03:02:43.288Z,37.00
2019-02-28T03:04:16.760Z,38.15
2019-02-28T03:44:10.939Z,29.18
2019-02-28T03:45:02.421Z,31.02
2019-02-28T03:46:15.045Z,31.37
2019-02-28T03:47:24.228Z,31.93
2019-02-28T03:48:43.042Z,33.80
2019-02-28T03:49:50.254Z,33.73
2019-02-28T03:51:13.855Z,34.92
2019-02-28T03:59:40.149Z,30.15
2019-02-28T04:02:39.563Z,30.57
2019-02-28T04:03:41.169Z,31.73
2019-02-28T04:04:55.766Z,31.70
2019-02-28T04:07:52.200Z,30.10
2019-02-28T04:12:58.660Z,30.48
2019-02-28T04:13:25.623Z,31.15
2019-02-28T04:15:27.454Z,31.00
2019-02-28T04:16:09.052Z,30.57
2019-02-28T04:17:11.307Z,30.88
2019-02-28T04:18:36.221Z,31.52
2019-02-28T04:19:44.404Z,30.60
2019-02-28T04:21:00.275Z,31.90
2019-02-28T04:22:10.946Z,30.97
2019-02-28T04:23:24.747Z,30.50
2019-02-28T04:26:24.866Z,30.57
2019-02-28T04:27:07.004Z,30.17
2019-02-28T04:29:01.239Z,29.52
2019-02-28T04:29:31.132Z,28.50
2019-02-28T04:32:30.035Z,29.10
2019-02-28T04:33:29.219Z,30.25
2019-02-28T04:36:00.356Z,28.77
2019-02-28T04:37:15.126Z,29.70
2019-02-28T04:41:50.683Z,28.07
2019-02-28T04:43:27.268Z,28.85
2019-02-28T04:44:32.390Z,29.55
2019-02-28T04:45:35.323Z,29.27
2019-02-28T04:46:39.621Z,29.55
2019-02-28T04:47:45.178Z,29.23
2019-02-28T04:49:03.656Z,29.80
2019-02-28T04:51:50.232Z,28.73
2019-02-28T04:53:12.914Z,28.02
2019-02-28T05:06:04.491Z,30.10
2019-02-28T05:07:14.212Z,29.63
2019-02-28T05:08:24.872Z,31.20
2019-02-28T05:09:35.627Z,30.23
2019-02-28T05:10:56.028Z,30.97
2019-02-28T05:12:06.019Z,30.30
2019-02-28T05:13:17.613Z,31.15
2019-02-28T05:14:27.687Z,30.80
2019-02-28T05:30:50.215Z,31.05
2019-02-28T05:32:57.813Z,30.60
2019-02-28T05:33:33.637Z,30.37
2019-02-28T05:45:48.687Z,31.12
2019-02-28T05:47:00.465Z,30.68
2019-02-28T05:48:27.556Z,28.60
2019-02-28T05:50:26.894Z,28.87
2019-02-28T05:51:44.619Z,26.48
2019-02-28T05:54:34.887Z,27.35
2019-02-28T05:57:13.973Z,27.70
2019-02-28T05:58:43.949Z,27.13
2019-02-28T05:59:45.219Z,27.20
2019-02-28T06:01:20.020Z,29.30
2019-02-28T06:02:26.753Z,27.48
2019-02-28T06:03:38.501Z,28.20
2019-02-28T06:04:40.783Z,28.42
2019-02-28T06:06:03.863Z,27.05
2019-02-28T06:07:32.777Z,30.55
2019-02-28T06:09:05.599Z,29.15
2019-02-28T06:09:59.973Z,29.95
2019-02-28T06:12:26.653Z,27.67
2019-02-28T06:13:33.330Z,26.52
2019-02-28T06:20:58.864Z,27.10
2019-02-28T06:22:15.171Z,27.32
2019-02-28T06:23:48.958Z,27.90
2019-02-28T06:41:24.636Z,25.37
2019-02-28T06:42:27.590Z,24.23
2019-02-28T07:00:35.178Z,25.52
2019-02-28T07:08:14.383Z,24.63
2019-02-28T08:01:37.425Z,25.65
2019-02-28T08:02:46.457Z,25.32
2019-02-28T08:04:18.101Z,25.10
2019-02-28T08:05:29.824Z,24.98
2019-02-28T08:06:31.420Z,25.05
2019-02-28T08:07:38.618Z,25.72
2019-02-28T08:08:49.698Z,25.80
2019-02-28T08:09:55.482Z,25.82
2019-02-28T08:11:04.401Z,25.10
2019-02-28T08:12:13.831Z,25.20
2019-02-28T08:13:22.141Z,24.90
2019-02-28T08:14:28.183Z,25.25
2019-02-28T08:15:38.465Z,25.45
2019-02-28T08:19:22.737Z,26.35
2019-02-28T08:20:45.526Z,26.80
2019-02-28T08:21:54.448Z,27.70
2019-02-28T08:23:03.060Z,25.90
2019-02-28T08:24:13.030Z,27.07
2019-02-28T08:25:36.111Z,26.10
2019-02-28T08:26:30.010Z,26.97
2019-02-28T08:27:38.456Z,28.83
2019-02-28T08:28:53.327Z,28.45
2019-02-28T08:29:55.272Z,28.67
2019-02-28T08:31:01.589Z,28.83
2019-02-28T08:32:10.965Z,28.12
2019-02-28T08:33:22.184Z,27.75
2019-02-28T08:34:27.718Z,29.25
2019-02-28T08:35:37.623Z,27.07
2019-02-28T08:36:51.283Z,30.08
2019-02-28T08:38:00.899Z,30.30
2019-02-28T08:39:16.216Z,29.40
2019-02-28T08:40:26.792Z,28.05
2019-02-28T08:41:34.844Z,29.42
2019-02-28T08:42:44.970Z,29.87
2019-02-28T08:43:52.241Z,28.52
2019-02-28T08:45:25.730Z,29.40
2019-02-28T08:46:35.595Z,29.60
2019-02-28T08:47:55.245Z,27.93
2019-02-28T08:48:54.903Z,28.05
2019-02-28T08:50:04.514Z,30.02
2019-02-28T08:51:14.451Z,30.70
2019-02-28T08:52:22.915Z,28.90
2019-02-28T08:53:50.760Z,27.73
2019-02-28T08:54:55.530Z,29.35
2019-02-28T08:56:03.388Z,29.20
2019-02-28T08:57:09.595Z,28.60
2019-02-28T08:58:19.688Z,30.10
2019-02-28T08:59:29.139Z,28.55
2019-02-28T09:00:37.639Z,28.55
2019-02-28T09:01:45.929Z,29.48
2019-02-28T09:02:57.927Z,28.30
2019-02-28T09:04:11.029Z,29.05
2019-02-28T09:05:25.959Z,27.25
2019-02-28T09:06:37.872Z,29.18
2019-02-28T09:07:50.800Z,28.70
2019-02-28T09:08:56.685Z,29.82
2019-02-28T09:10:11.820Z,29.57
2019-02-28T09:11:14.794Z,29.67
2019-02-28T09:12:34.873Z,28.23
2019-02-28T09:13:39.994Z,28.40
2019-02-28T09:15:52.999Z,28.87
2019-02-28T09:17:09.587Z,29.82
2019-02-28T09:18:46.602Z,28.50
2019-02-28T09:20:02.012Z,29.60
2019-02-28T09:21:15.357Z,28.90
2019-02-28T09:23:37.571Z,28.92
2019-02-28T09:25:11.487Z,29.87
2019-02-28T09:26:23.054Z,27.13
2019-02-28T09:27:35.148Z,29.55
2019-02-28T09:28:39.607Z,31.10
2019-02-28T09:29:46.452Z,30.50
2019-02-28T09:31:01.283Z,28.98
2019-02-28T09:32:10.295Z,29.18
2019-02-28T09:33:19.370Z,29.92
2019-02-28T09:34:25.914Z,29.07
2019-02-28T09:35:36.289Z,30.60
2019-02-28T09:38:13.871Z,28.75
2019-02-28T09:41:04.574Z,31.12
2019-02-28T09:43:47.302Z,30.27
2019-02-28T09:44:55.762Z,29.25
2019-02-28T09:46:03.578Z,29.65
2019-02-28T09:47:26.652Z,32.10
2019-02-28T09:48:37.279Z,29.52
2019-02-28T09:49:44.306Z,30.48
2019-02-28T09:50:58.325Z,32.98
2019-02-28T09:52:15.561Z,30.17
2019-02-28T09:53:32.375Z,31.00
2019-02-28T09:54:38.467Z,31.50
2019-02-28T09:55:52.994Z,29.65
2019-02-28T09:57:22.920Z,31.95
2019-02-28T09:58:37.710Z,31.33
2019-02-28T09:59:43.964Z,29.35
2019-02-28T10:00:51.222Z,30.57
2019-02-28T10:02:01.803Z,31.52
2019-02-28T10:03:07.996Z,32.30
2019-02-28T10:04:12.809Z,31.25
2019-02-28T10:08:52.755Z,32.13
2019-02-28T10:09:57.314Z,31.77
2019-02-28T10:11:02.321Z,33.67
2019-02-28T10:12:11.015Z,31.73
2019-02-28T10:13:18.303Z,30.95
2019-02-28T10:20:34.872Z,31.07
2019-02-28T10:21:39.692Z,32.38
2019-02-28T10:22:47.317Z,29.60
2019-02-28T10:23:56.852Z,32.80
2019-02-28T10:25:08.872Z,31.77
2019-02-28T10:26:17.298Z,32.05
2019-02-28T10:27:23.352Z,32.93
2019-02-28T10:28:37.729Z,31.68
2019-02-28T10:29:45.898Z,32.15
2019-02-28T10:30:50.856Z,31.70
2019-02-28T10:32:08.924Z,33.53
2019-02-28T10:33:06.774Z,32.25
2019-02-28T10:34:16.737Z,32.93
2019-02-28T10:35:21.924Z,34.75
2019-02-28T10:36:27.545Z,31.85
2019-02-28T10:37:36.682Z,32.67
2019-02-28T10:38:45.014Z,34.23
2019-02-28T10:39:51.545Z,32.53
2019-02-28T10:40:57.815Z,32.25
2019-02-28T10:42:06.840Z,34.23
2019-02-28T10:43:15.624Z,32.75
2019-02-28T10:44:22.064Z,33.40
2019-02-28T10:45:28.666Z,33.63
2019-02-28T10:46:35.993Z,34.40
2019-02-28T10:47:41.754Z,33.38
2019-02-28T10:48:50.961Z,34.13
2019-02-28T10:50:01.018Z,33.02
2019-02-28T10:51:13.969Z,34.73
2019-02-28T10:52:19.158Z,34.18
2019-02-28T10:53:24.568Z,32.42
2019-02-28T10:54:39.081Z,32.60
2019-02-28T10:55:43.560Z,32.23
2019-02-28T10:56:56.507Z,32.83
2019-02-28T10:58:04.861Z,32.78
2019-02-28T10:59:11.727Z,31.82
2019-02-28T11:00:29.521Z,31.40
2019-02-28T11:01:41.787Z,31.17
2019-02-28T11:02:45.835Z,31.85
2019-02-28T11:05:23.610Z,29.27
2019-02-28T11:06:29.706Z,29.07
2019-02-28T11:09:09.497Z,30.23
2019-02-28T11:10:28.844Z,27.90
2019-02-28T11:11:42.440Z,29.48
2019-02-28T11:12:54.356Z,28.98
2019-02-28T11:15:41.442Z,27.40
2019-02-28T11:16:59.157Z,31.30
2019-02-28T11:18:21.662Z,31.10
2019-02-28T11:19:32.786Z,30.70
2019-02-28T11:20:42.367Z,31.85
2019-02-28T11:22:05.805Z,29.90
2019-02-28T11:23:34.629Z,28.73
2019-02-28T11:24:23.672Z,29.70
2019-02-28T11:27:03.837Z,32.55
2019-02-28T11:28:32.144Z,30.97
2019-02-28T11:29:56.753Z,32.33
2019-02-28T11:31:07.454Z,32.05
2019-02-28T11:32:19.650Z,32.58
2019-02-28T11:34:51.947Z,33.48
2019-02-28T11:35:57.878Z,32.67
2019-02-28T11:39:38.310Z,33.33
2019-02-28T11:40:44.620Z,33.13
2019-02-28T11:41:53.526Z,33.38
2019-02-28T11:43:03.946Z,33.13
2019-02-28T11:44:12.011Z,34.30
2019-02-28T11:45:36.288Z,34.23
2019-02-28T11:46:36.715Z,34.08
2019-02-28T11:47:51.710Z,32.85
2019-02-28T11:48:53.947Z,34.35
2019-02-28T11:50:00.337Z,33.05
2019-02-28T11:51:07.409Z,31.82
2019-02-28T11:56:34.727Z,31.33
2019-02-28T11:57:42.122Z,34.78
2019-02-28T11:58:51.693Z,32.95
2019-02-28T12:00:01.519Z,35.50
2019-02-28T12:02:33.676Z,35.28
2019-02-28T12:03:47.374Z,34.05
2019-02-28T12:04:57.999Z,34.88
2019-02-28T12:06:07.076Z,33.58
2019-02-28T12:07:12.326Z,36.20
2019-02-28T12:08:22.841Z,35.90
2019-02-28T12:09:32.778Z,36.35
2019-02-28T12:10:49.779Z,35.43
2019-02-28T12:11:59.006Z,33.92
2019-02-28T12:13:06.900Z,34.90
2019-02-28T12:14:14.544Z,31.65
2019-02-28T12:15:41.601Z,32.53
2019-02-28T12:16:52.631Z,35.05
2019-02-28T12:18:03.900Z,32.42
2019-02-28T12:19:15.804Z,34.07
2019-02-28T12:20:25.874Z,36.42
2019-02-28T12:21:29.463Z,36.25
2019-02-28T12:22:49.134Z,35.55
2019-02-28T12:27:16.108Z,32.23
2019-02-28T12:33:23.322Z,30.25
2019-02-28T12:34:09.840Z,30.25
2019-02-28T12:35:42.299Z,31.33
2019-02-28T12:39:40.442Z,31.60
2019-02-28T12:40:57.866Z,31.45
2019-02-28T12:43:48.506Z,30.90
2019-02-28T12:51:07.877Z,32.17
2019-02-28T12:58:48.263Z,31.23
2019-02-28T12:59:35.753Z,29.70
2019-02-28T13:01:58.489Z,30.72
2019-02-28T13:07:38.851Z,31.00
2019-02-28T13:09:01.684Z,32.28
2019-02-28T13:10:16.997Z,31.23
2019-02-28T13:11:35.755Z,31.07
2019-02-28T13:13:14.557Z,31.37
2019-02-28T13:28:04.938Z,31.12
2019-02-28T13:49:46.637Z,36.00
2019-02-28T13:51:02.366Z,37.93
2019-02-28T13:53:53.503Z,38.20
2019-02-28T13:55:31.109Z,37.40
2019-02-28T14:01:22.337Z,37.42
2019-02-28T14:02:40.572Z,38.00
2019-02-28T14:04:07.421Z,38.38
2019-02-28T14:06:44.834Z,36.05
2019-02-28T15:24:32.808Z,37.75
2019-02-28T15:31:33.173Z,40.52
2019-02-28T15:32:37.851Z,40.92
2019-02-28T15:33:50.457Z,44.50
2019-02-28T15:35:12.462Z,42.45
2019-02-28T15:38:16.676Z,40.83
2019-02-28T15:42:13.039Z,39.05
2019-02-28T15:44:10.878Z,41.73
2019-02-28T15:44:46.404Z,38.38
2019-02-28T15:47:29.870Z,38.48
2019-02-28T15:50:16.403Z,36.90
2019-02-28T15:51:39.155Z,39.20
2019-02-28T15:52:36.736Z,38.85
2019-02-28T15:53:53.464Z,38.33
2019-02-28T15:55:15.300Z,38.20
2019-02-28T15:56:42.556Z,39.00
2019-02-28T16:05:31.916Z,39.45
2019-02-28T16:07:21.486Z,39.60
2019-02-28T16:14:23.079Z,36.53
2019-02-28T16:14:35.822Z,39.30
2019-02-28T16:15:26.431Z,37.03
2019-02-28T16:18:36.036Z,37.60
2019-02-28T16:22:14.644Z,36.28
2019-02-28T16:23:31.439Z,38.63
2019-02-28T16:24:42.315Z,37.75
2019-02-28T16:25:50.081Z,36.45
2019-02-28T16:26:58.898Z,38.78
2019-02-28T16:28:16.719Z,37.58
2019-02-28T16:29:27.243Z,36.65
2019-02-28T16:30:42.234Z,39.08
2019-02-28T16:31:57.287Z,38.53
2019-02-28T16:33:24.770Z,37.28
2019-02-28T16:34:11.720Z,38.78
2019-02-28T16:35:20.312Z,35.70
2019-02-28T16:36:30.728Z,38.35
2019-02-28T16:39:17.042Z,36.77
2019-02-28T16:42:29.206Z,37.08
2019-02-28T16:43:34.331Z,36.42
2019-02-28T16:45:02.599Z,36.33
2019-02-28T16:53:07.599Z,37.03
2019-02-28T16:56:02.707Z,36.20
2019-02-28T16:59:54.719Z,37.13
2019-02-28T17:00:53.127Z,35.98
2019-02-28T17:01:11.265Z,37.78
2019-02-28T17:03:44.133Z,37.58
2019-02-28T17:05:01.878Z,36.65
2019-02-28T17:06:11.786Z,37.08
2019-02-28T17:07:30.617Z,37.45
2019-02-28T17:08:44.549Z,38.13
2019-02-28T17:10:58.582Z,37.73
2019-02-28T17:12:05.296Z,37.83
2019-02-28T17:13:40.270Z,37.33
2019-02-28T17:14:38.049Z,36.70
2019-02-28T17:15:48.039Z,37.00
2019-02-28T17:17:03.258Z,38.67
2019-02-28T17:18:30.584Z,37.45
2019-02-28T17:20:07.478Z,35.78
2019-02-28T17:21:05.486Z,37.35
2019-02-28T17:22:23.735Z,38.05
2019-02-28T17:23:33.772Z,37.15
2019-02-28T17:24:59.747Z,38.45
2019-02-28T17:28:43.366Z,36.75
2019-02-28T17:30:14.405Z,36.93
2019-02-28T17:32:20.888Z,37.65
2019-02-28T17:32:44.317Z,34.40
2019-02-28T17:34:27.502Z,35.97
2019-02-28T17:35:27.747Z,35.33
2019-02-28T17:36:39.331Z,36.30
2019-02-28T17:37:48.678Z,36.23
2019-02-28T17:39:07.767Z,37.33
2019-02-28T17:40:17.843Z,36.00
2019-02-28T17:41:41.811Z,37.15
2019-02-28T17:43:25.543Z,35.78
2019-02-28T17:44:37.502Z,35.45
2019-02-28T17:45:50.621Z,36.65
2019-02-28T17:47:05.141Z,36.88
2019-02-28T17:48:52.571Z,36.68
2019-02-28T17:50:42.764Z,35.75
2019-02-28T17:54:20.443Z,34.45
2019-02-28T18:03:39.769Z,33.88
2019-02-28T18:05:15.117Z,35.83
2019-02-28T18:09:05.994Z,34.70
2019-02-28T18:10:30.197Z,35.03
2019-02-28T18:13:26.575Z,37.48
2019-02-28T18:15:12.164Z,38.50
2019-02-28T18:17:09.439Z,38.78
2019-02-28T18:18:35.325Z,37.25
2019-02-28T18:26:47.306Z,38.38
2019-02-28T18:28:00.263Z,38.20
2019-02-28T18:29:23.769Z,36.35
2019-02-28T18:30:49.988Z,38.35
2019-02-28T18:32:02.309Z,36.93
2019-02-28T18:33:21.482Z,39.80
2019-02-28T18:34:26.805Z,38.88
2019-02-28T18:35:36.040Z,38.80
2019-02-28T18:37:16.801Z,40.17
2019-02-28T18:38:04.512Z,40.08
2019-02-28T18:40:59.667Z,38.25
2019-02-28T18:44:32.369Z,37.95
2019-02-28T18:45:53.622Z,36.77
2019-02-28T18:47:21.311Z,37.53
2019-02-28T18:48:42.240Z,40.12
2019-02-28T18:57:23.632Z,39.63
2019-02-28T18:58:37.789Z,41.00
2019-02-28T18:59:46.838Z,39.60
2019-02-28T19:01:02.068Z,40.45
2019-02-28T19:02:17.123Z,38.80
2019-02-28T19:03:40.832Z,39.40
2019-02-28T19:05:06.820Z,40.75
2019-02-28T19:06:23.403Z,38.28
2019-02-28T19:09:14.097Z,36.65
2019-02-28T19:10:22.653Z,37.67
2019-02-28T19:11:48.950Z,37.67
2019-02-28T19:12:49.771Z,38.60
2019-02-28T19:16:06.887Z,38.30
2019-02-28T19:17:22.148Z,35.35
2019-02-28T19:18:37.852Z,35.17
2019-02-28T19:19:52.308Z,34.73
2019-02-28T19:21:01.471Z,34.80
2019-02-28T19:22:16.283Z,33.92
2019-02-28T19:23:32.263Z,34.10
2019-02-28T19:24:35.031Z,34.10
2019-02-28T19:25:42.886Z,33.80
2019-02-28T19:26:58.518Z,34.45
2019-02-28T19:28:08.407Z,33.75
2019-02-28T19:29:19.261Z,32.83
2019-02-28T19:30:26.163Z,33.58
2019-02-28T19:33:19.656Z,32.83
2019-02-28T19:34:29.158Z,32.35
2019-02-28T19:35:49.947Z,33.20
2019-02-28T19:38:04.566Z,33.35
2019-02-28T19:43:10.401Z,22.07
2019-02-28T19:44:22.279Z,17.57
2019-02-28T19:45:33.501Z,18.50
2019-02-28T19:46:53.340Z,19.27
2019-02-28T19:48:00.005Z,16.42
2019-02-28T19:50:48.373Z,8.58
2019-02-28T19:57:01.422Z,4.72
2019-02-28T19:58:07.467Z,4.83
2019-02-28T20:02:39.370Z,4.28
2019-02-28T20:03:45.330Z,4.40
2019-02-28T20:04:51.603Z,4.70
2019-02-28T20:06:00.211Z,4.03
2019-02-28T20:07:12.099Z,4.00
2019-02-28T20:08:15.407Z,4.20
2019-02-28T20:09:24.294Z,3.98
2019-02-28T20:10:35.358Z,3.92
2019-02-28T20:11:47.364Z,4.30
2019-02-28T20:13:01.290Z,4.70
2019-02-28T20:14:09.150Z,4.60
2019-02-28T20:15:17.166Z,4.05
2019-02-28T20:16:23.479Z,4.90
2019-02-28T20:17:38.951Z,4.92
2019-02-28T20:18:51.977Z,6.97
2019-02-28T20:19:55.691Z,6.00
2019-02-28T20:21:05.247Z,6.40
2019-02-28T20:23:35.341Z,4.83
2019-02-28T20:26:08.851Z,3.72
2019-02-28T20:29:43.342Z,3.52
2019-02-28T20:30:56.418Z,3.37
2019-02-28T20:32:11.319Z,3.52
2019-02-28T20:33:25.971Z,3.02
2019-02-28T20:36:10.760Z,2.42
2019-02-28T20:38:45.813Z,2.50
2019-02-28T20:41:00.821Z,2.72
2019-02-28T20:41:23.973Z,2.75
2019-02-28T20:42:46.424Z,2.75
2019-02-28T20:43:56.674Z,2.58
2019-02-28T20:45:08.984Z,2.95
2019-02-28T20:46:19.939Z,2.70
2019-02-28T20:47:38.584Z,3.00
2019-02-28T20:48:51.671Z,2.67
2019-02-28T20:50:39.611Z,2.70
2019-02-28T20:51:57.220Z,2.42
2019-02-28T20:53:39.408Z,2.90
2019-02-28T20:54:49.199Z,2.90
2019-02-28T20:57:42.413Z,2.60
2019-02-28T20:58:57.874Z,3.10
2019-02-28T21:00:36.185Z,3.20
2019-02-28T21:01:48.691Z,3.22
2019-02-28T21:02:58.855Z,3.05
2019-02-28T21:21:47.532Z,2.92
2019-02-28T21:24:28.678Z,2.60
2019-02-28T21:25:35.376Z,2.65
2019-02-28T21:28:36.082Z,2.92
2019-02-28T21:30:13.198Z,3.10
2019-02-28T21:30:57.460Z,3.40
2019-02-28T21:32:22.337Z,3.45
2019-02-28T21:33:38.778Z,3.30
2019-02-28T21:35:07.148Z,3.30
2019-02-28T21:37:43.493Z,3.65
2019-02-28T21:48:12.645Z,3.77
2019-02-28T21:48:22.197Z,3.87
2019-02-28T22:01:48.984Z,4.95
2019-02-28T22:03:11.552Z,5.60
2019-02-28T22:04:29.244Z,5.28
2019-02-28T22:05:36.591Z,6.10
2019-02-28T22:06:42.210Z,6.03
2019-02-28T22:08:07.311Z,6.10
2019-02-28T22:09:44.827Z,6.40
2019-02-28T22:10:35.074Z,6.50
2019-02-28T22:11:57.093Z,6.55
2019-02-28T22:13:40.466Z,7.05
2019-02-28T22:14:20.353Z,8.65
2019-02-28T22:23:03.762Z,14.87
2019-02-28T22:24:18.308Z,16.57
2019-02-28T22:25:45.872Z,16.55
2019-02-28T22:27:03.018Z,17.12
2019-02-28T22:28:18.871Z,20.48
2019-02-28T22:32:27.195Z,23.18
2019-02-28T22:34:04.532Z,26.93
2019-02-28T22:35:19.420Z,25.57
2019-02-28T22:36:48.988Z,27.05
2019-02-28T22:38:10.587Z,29.27
2019-02-28T22:39:40.045Z,27.42
2019-02-28T22:42:43.714Z,32.20
2019-02-28T22:44:16.014Z,31.15
2019-02-28T22:45:00.495Z,31.87
2019-02-28T22:49:24.201Z,33.63
2019-02-28T22:51:04.583Z,32.88
2019-02-28T22:52:35.705Z,33.35
2019-02-28T22:53:57.302Z,33.78
2019-02-28T22:57:15.107Z,34.03
2019-02-28T22:59:21.225Z,33.65
2019-02-28T23:02:28.938Z,33.42
2019-02-28T23:03:39.373Z,33.25
2019-02-28T23:05:35.149Z,32.55
2019-02-28T23:06:08.019Z,34.30
2019-02-28T23:10:11.735Z,34.23
2019-02-28T23:14:01.542Z,33.23
2019-02-28T23:15:07.573Z,33.25
2019-02-28T23:21:01.978Z,33.63
2019-02-28T23:23:42.722Z,34.35
2019-02-28T23:24:46.036Z,33.53
2019-02-28T23:26:05.825Z,32.53
2019-02-28T23:31:12.131Z,33.83
2019-02-28T23:32:59.418Z,33.15
2019-02-28T23:35:43.853Z,34.38
2019-02-28T23:36:54.691Z,34.67
2019-02-28T23:38:05.700Z,33.73
2019-02-28T23:39:13.004Z,34.40
2019-02-28T23:40:20.921Z,33.98
2019-02-28T23:41:36.294Z,33.05
2019-02-28T23:42:43.614Z,35.15
2019-02-28T23:44:05.119Z,33.13
2019-02-28T23:44:59.972Z,35.52
2019-02-28T23:46:19.564Z,35.08
2019-02-28T23:47:24.433Z,35.15
2019-02-28T23:49:44.431Z,34.58
2019-02-28T23:51:03.383Z,36.20
2019-02-28T23:52:06.155Z,35.03
2019-02-28T23:53:12.249Z,37.48
2019-02-28T23:54:36.128Z,34.63
2019-02-28T23:55:43.798Z,35.88
2019-02-28T23:57:00.645Z,35.38
2019-02-28T23:58:18.265Z,34.88
2019-02-28T23:59:29.690Z,36.33
